sensor_id;sensor_type;location;lat;lon;timestamp;pressure;altitude;pressure_sealevel;temperature;humidity
17873;BME280;36318;42.620;23.338;2023-04-05T00:01:23;92387.28;;;0.39;100.00
17873;BME280;36318;42.620;23.338;2023-04-05T00:03:50;92374.38;;;0.42;100.00
17873;BME280;36318;42.620;23.338;2023-04-05T00:06:18;92377.81;;;0.41;100.00
17873;BME280;36318;42.620;23.338;2023-04-05T00:08:46;92380.88;;;0.32;100.00
17873;BME280;36318;42.620;23.338;2023-04-05T00:11:14;92383.50;;;0.30;100.00
17873;BME280;36318;42.620;23.338;2023-04-05T00:13:40;92381.63;;;0.34;100.00
17873;BME280;36318;42.620;23.338;2023-04-05T00:16:08;92384.47;;;0.28;100.00
17873;BME280;36318;42.620;23.338;2023-04-05T00:18:35;92366.47;;;0.31;100.00
17873;BME280;36318;42.620;23.338;2023-04-05T00:21:02;92369.69;;;0.34;100.00
17873;BME280;36318;42.620;23.338;2023-04-05T00:23:29;92365.31;;;0.36;100.00
17873;BME280;36318;42.620;23.338;2023-04-05T00:26:01;92370.41;;;0.36;100.00
17873;BME280;36318;42.620;23.338;2023-04-05T00:28:28;92377.50;;;0.16;100.00
17873;BME280;36318;42.620;23.338;2023-04-05T00:30:54;92385.56;;;0.24;100.00
17873;BME280;36318;42.620;23.338;2023-04-05T00:33:22;92390.09;;;0.34;100.00
17873;BME280;36318;42.620;23.338;2023-04-05T00:35:49;92382.34;;;0.36;100.00
17873;BME280;36318;42.620;23.338;2023-04-05T00:38:16;92376.03;;;0.43;100.00
17873;BME280;36318;42.620;23.338;2023-04-05T00:40:42;92387.81;;;0.45;100.00
17873;BME280;36318;42.620;23.338;2023-04-05T00:43:09;92378.41;;;0.46;100.00
17873;BME280;36318;42.620;23.338;2023-04-05T00:45:35;92372.81;;;0.55;100.00
17873;BME280;36318;42.620;23.338;2023-04-05T00:48:02;92373.38;;;0.44;100.00
17873;BME280;36318;42.620;23.338;2023-04-05T00:50:31;92371.91;;;0.40;100.00
17873;BME280;36318;42.620;23.338;2023-04-05T00:52:57;92379.72;;;0.53;100.00
17873;BME280;36318;42.620;23.338;2023-04-05T00:55:24;92384.84;;;0.53;100.00
17873;BME280;36318;42.620;23.338;2023-04-05T00:57:52;92392.50;;;0.53;100.00
17873;BME280;36318;42.620;23.338;2023-04-05T01:00:20;92383.69;;;0.43;100.00
17873;BME280;36318;42.620;23.338;2023-04-05T01:02:47;92386.25;;;0.43;100.00
17873;BME280;36318;42.620;23.338;2023-04-05T01:05:20;92386.31;;;0.41;100.00
17873;BME280;36318;42.620;23.338;2023-04-05T01:07:52;92390.25;;;0.47;100.00
17873;BME280;36318;42.620;23.338;2023-04-05T01:10:21;92398.50;;;0.52;100.00
17873;BME280;36318;42.620;23.338;2023-04-05T01:12:47;92395.53;;;0.44;100.00
17873;BME280;36318;42.620;23.338;2023-04-05T01:15:14;92393.13;;;0.41;100.00
17873;BME280;36318;42.620;23.338;2023-04-05T01:17:43;92393.72;;;0.46;100.00
17873;BME280;36318;42.620;23.338;2023-04-05T01:20:11;92396.34;;;0.44;100.00
17873;BME280;36318;42.620;23.338;2023-04-05T01:22:43;92394.69;;;0.43;100.00
17873;BME280;36318;42.620;23.338;2023-04-05T01:25:25;92394.22;;;0.37;100.00
17873;BME280;36318;42.620;23.338;2023-04-05T01:27:59;92405.56;;;0.31;100.00
17873;BME280;36318;42.620;23.338;2023-04-05T01:30:31;92404.84;;;0.45;100.00
17873;BME280;36318;42.620;23.338;2023-04-05T01:33:01;92401.28;;;0.47;100.00
17873;BME280;36318;42.620;23.338;2023-04-05T01:35:31;92398.59;;;0.50;100.00
17873;BME280;36318;42.620;23.338;2023-04-05T01:38:03;92403.94;;;0.46;100.00
17873;BME280;36318;42.620;23.338;2023-04-05T01:40:30;92391.97;;;0.46;100.00
17873;BME280;36318;42.620;23.338;2023-04-05T01:42:59;92400.56;;;0.45;100.00
17873;BME280;36318;42.620;23.338;2023-04-05T01:45:26;92395.88;;;0.53;100.00
17873;BME280;36318;42.620;23.338;2023-04-05T01:47:54;92391.19;;;0.46;100.00
17873;BME280;36318;42.620;23.338;2023-04-05T01:50:21;92386.66;;;0.51;100.00
17873;BME280;36318;42.620;23.338;2023-04-05T01:52:47;92389.44;;;0.46;100.00
17873;BME280;36318;42.620;23.338;2023-04-05T01:55:14;92396.84;;;0.51;100.00
17873;BME280;36318;42.620;23.338;2023-04-05T01:57:40;92394.88;;;0.56;100.00
17873;BME280;36318;42.620;23.338;2023-04-05T02:00:07;92394.88;;;0.56;100.00
17873;BME280;36318;42.620;23.338;2023-04-05T02:02:34;92400.63;;;0.59;100.00
17873;BME280;36318;42.620;23.338;2023-04-05T02:05:02;92404.00;;;0.60;100.00
17873;BME280;36318;42.620;23.338;2023-04-05T02:07:29;92405.56;;;0.63;100.00
17873;BME280;36318;42.620;23.338;2023-04-05T02:09:55;92397.75;;;0.66;100.00
17873;BME280;36318;42.620;23.338;2023-04-05T02:12:22;92402.94;;;0.48;100.00
17873;BME280;36318;42.620;23.338;2023-04-05T02:14:48;92393.53;;;0.49;100.00
17873;BME280;36318;42.620;23.338;2023-04-05T02:17:15;92379.56;;;0.56;100.00
17873;BME280;36318;42.620;23.338;2023-04-05T02:19:43;92389.03;;;0.54;100.00
17873;BME280;36318;42.620;23.338;2023-04-05T02:22:12;92397.50;;;0.54;100.00
17873;BME280;36318;42.620;23.338;2023-04-05T02:24:38;92405.09;;;0.56;100.00
17873;BME280;36318;42.620;23.338;2023-04-05T02:27:05;92402.94;;;0.64;100.00
17873;BME280;36318;42.620;23.338;2023-04-05T02:29:32;92398.91;;;0.60;100.00
17873;BME280;36318;42.620;23.338;2023-04-05T02:31:59;92397.75;;;0.66;100.00
17873;BME280;36318;42.620;23.338;2023-04-05T02:34:25;92398.31;;;0.55;100.00
17873;BME280;36318;42.620;23.338;2023-04-05T02:36:52;92404.25;;;0.55;100.00
17873;BME280;36318;42.620;23.338;2023-04-05T02:39:20;92401.44;;;0.60;100.00
17873;BME280;36318;42.620;23.338;2023-04-05T02:41:47;92396.34;;;0.60;100.00
17873;BME280;36318;42.620;23.338;2023-04-05T02:44:14;92399.66;;;0.62;100.00
17873;BME280;36318;42.620;23.338;2023-04-05T02:46:40;92390.91;;;0.66;100.00
17873;BME280;36318;42.620;23.338;2023-04-05T02:49:07;92393.41;;;0.68;100.00
17873;BME280;36318;42.620;23.338;2023-04-05T02:51:33;92397.50;;;0.70;100.00
17873;BME280;36318;42.620;23.338;2023-04-05T02:54:00;92391.56;;;0.70;100.00
17873;BME280;36318;42.620;23.338;2023-04-05T02:56:28;92385.75;;;0.68;100.00
17873;BME280;36318;42.620;23.338;2023-04-05T02:58:55;92387.84;;;0.59;100.00
17873;BME280;36318;42.620;23.338;2023-04-05T03:01:21;92386.28;;;0.57;100.00
17873;BME280;36318;42.620;23.338;2023-04-05T03:03:48;92380.19;;;0.59;100.00
17873;BME280;36318;42.620;23.338;2023-04-05T03:06:15;92388.94;;;0.55;100.00
17873;BME280;36318;42.620;23.338;2023-04-05T03:08:42;92383.84;;;0.55;100.00
17873;BME280;36318;42.620;23.338;2023-04-05T03:11:10;92384.66;;;0.56;100.00
17873;BME280;36318;42.620;23.338;2023-04-05T03:13:38;92387.06;;;0.59;100.00
17873;BME280;36318;42.620;23.338;2023-04-05T03:16:05;92389.03;;;0.54;100.00
17873;BME280;36318;42.620;23.338;2023-04-05T03:18:31;92387.94;;;0.58;100.00
17873;BME280;36318;42.620;23.338;2023-04-05T03:20:58;92388.84;;;0.57;100.00
17873;BME280;36318;42.620;23.338;2023-04-05T03:23:25;92387.84;;;0.59;100.00
17873;BME280;36318;42.620;23.338;2023-04-05T03:25:53;92393.63;;;0.63;100.00
17873;BME280;36318;42.620;23.338;2023-04-05T03:28:20;92383.69;;;0.58;100.00
17873;BME280;36318;42.620;23.338;2023-04-05T03:30:49;92385.41;;;0.58;100.00
17873;BME280;36318;42.620;23.338;2023-04-05T03:33:15;92396.84;;;0.51;100.00
17873;BME280;36318;42.620;23.338;2023-04-05T03:35:42;92392.91;;;0.61;100.00
17873;BME280;36318;42.620;23.338;2023-04-05T03:38:08;92394.56;;;0.62;100.00
17873;BME280;36318;42.620;23.338;2023-04-05T03:40:35;92398.84;;;0.46;100.00
17873;BME280;36318;42.620;23.338;2023-04-05T03:43:01;92397.00;;;0.64;100.00
17873;BME280;36318;42.620;23.338;2023-04-05T03:45:28;92398.16;;;0.58;100.00
17873;BME280;36318;42.620;23.338;2023-04-05T03:47:56;92394.03;;;0.55;100.00
17873;BME280;36318;42.620;23.338;2023-04-05T03:50:23;92406.72;;;0.57;100.00
17873;BME280;36318;42.620;23.338;2023-04-05T03:52:50;92409.28;;;0.57;100.00
17873;BME280;36318;42.620;23.338;2023-04-05T03:55:17;92410.34;;;0.53;100.00
17873;BME280;36318;42.620;23.338;2023-04-05T03:57:43;92412.91;;;0.53;100.00
17873;BME280;36318;42.620;23.338;2023-04-05T04:00:10;92414.63;;;0.52;100.00
17873;BME280;36318;42.620;23.338;2023-04-05T04:02:40;92416.75;;;0.60;100.00
17873;BME280;36318;42.620;23.338;2023-04-05T04:05:08;92416.94;;;0.57;100.00
17873;BME280;36318;42.620;23.338;2023-04-05T04:07:35;92420.56;;;0.53;100.00
17873;BME280;36318;42.620;23.338;2023-04-05T04:10:02;92412.50;;;0.60;100.00
17873;BME280;36318;42.620;23.338;2023-04-05T04:12:28;92413.47;;;0.58;100.00
17873;BME280;36318;42.620;23.338;2023-04-05T04:14:55;92418.91;;;0.52;100.00
17873;BME280;36318;42.620;23.338;2023-04-05T04:17:25;92415.72;;;0.48;100.00
17873;BME280;36318;42.620;23.338;2023-04-05T04:19:52;92410.94;;;0.58;100.00
17873;BME280;36318;42.620;23.338;2023-04-05T04:22:20;92414.72;;;0.51;100.00
17873;BME280;36318;42.620;23.338;2023-04-05T04:24:46;92411.50;;;0.47;100.00
17873;BME280;36318;42.620;23.338;2023-04-05T04:27:14;92416.03;;;0.58;100.00
17873;BME280;36318;42.620;23.338;2023-04-05T04:29:41;92412.84;;;0.70;100.00
17873;BME280;36318;42.620;23.338;2023-04-05T04:32:11;92415.19;;;0.73;100.00
17873;BME280;36318;42.620;23.338;2023-04-05T04:34:39;92416.28;;;0.69;100.00
17873;BME280;36318;42.620;23.338;2023-04-05T04:37:09;92413.56;;;0.72;100.00
17873;BME280;36318;42.620;23.338;2023-04-05T04:39:43;92427.56;;;0.81;100.00
17873;BME280;36318;42.620;23.338;2023-04-05T04:42:11;92425.00;;;0.81;100.00
17873;BME280;36318;42.620;23.338;2023-04-05T04:44:40;92427.00;;;0.76;100.00
17873;BME280;36318;42.620;23.338;2023-04-05T04:47:07;92429.13;;;0.83;100.00
17873;BME280;36318;42.620;23.338;2023-04-05T04:49:37;92417.41;;;0.79;100.00
17873;BME280;36318;42.620;23.338;2023-04-05T04:52:04;92446.03;;;0.86;100.00
17873;BME280;36318;42.620;23.338;2023-04-05T04:54:30;92428.97;;;0.86;100.00
17873;BME280;36318;42.620;23.338;2023-04-05T04:56:59;92446.50;;;0.92;100.00
17873;BME280;36318;42.620;23.338;2023-04-05T04:59:26;92441.53;;;0.89;100.00
17873;BME280;36318;42.620;23.338;2023-04-05T05:01:53;92444.03;;;0.91;100.00
17873;BME280;36318;42.620;23.338;2023-04-05T05:04:20;92441.97;;;0.97;100.00
17873;BME280;36318;42.620;23.338;2023-04-05T05:06:48;92436.69;;;1.00;100.00
17873;BME280;36318;42.620;23.338;2023-04-05T05:09:15;92441.06;;;0.98;100.00
17873;BME280;36318;42.620;23.338;2023-04-05T05:11:42;92439.16;;;1.02;100.00
17873;BME280;36318;42.620;23.338;2023-04-05T05:14:10;92445.41;;;1.12;100.00
17873;BME280;36318;42.620;23.338;2023-04-05T05:16:37;92440.47;;;1.09;100.00
17873;BME280;36318;42.620;23.338;2023-04-05T05:19:03;92446.63;;;1.20;100.00
17873;BME280;36318;42.620;23.338;2023-04-05T05:21:30;92436.81;;;1.29;100.00
17873;BME280;36318;42.620;23.338;2023-04-05T05:23:56;92450.97;;;1.34;100.00
17873;BME280;36318;42.620;23.338;2023-04-05T05:26:23;92448.16;;;1.39;100.00
17873;BME280;36318;42.620;23.338;2023-04-05T05:28:53;92443.75;;;1.27;100.00
17873;BME280;36318;42.620;23.338;2023-04-05T05:31:22;92439.84;;;1.35;100.00
17873;BME280;36318;42.620;23.338;2023-04-05T05:33:48;92447.53;;;1.49;100.00
17873;BME280;36318;42.620;23.338;2023-04-05T05:36:15;92443.66;;;1.58;100.00
17873;BME280;36318;42.620;23.338;2023-04-05T05:38:43;92444.13;;;1.64;100.00
17873;BME280;36318;42.620;23.338;2023-04-05T05:41:10;92439.66;;;1.68;100.00
17873;BME280;36318;42.620;23.338;2023-04-05T05:43:36;92444.59;;;1.71;100.00
17873;BME280;36318;42.620;23.338;2023-04-05T05:46:03;92440.97;;;1.75;100.00
17873;BME280;36318;42.620;23.338;2023-04-05T05:48:31;92438.44;;;1.89;100.00
17873;BME280;36318;42.620;23.338;2023-04-05T05:50:58;92429.56;;;1.95;100.00
17873;BME280;36318;42.620;23.338;2023-04-05T05:53:27;92435.78;;;1.91;100.00
17873;BME280;36318;42.620;23.338;2023-04-05T05:55:54;92426.91;;;1.96;100.00
17873;BME280;36318;42.620;23.338;2023-04-05T05:58:21;92429.75;;;1.92;100.00
17873;BME280;36318;42.620;23.338;2023-04-05T06:00:47;92431.50;;;2.05;100.00
17873;BME280;36318;42.620;23.338;2023-04-05T06:03:15;92435.81;;;2.19;100.00
17873;BME280;36318;42.620;23.338;2023-04-05T06:05:50;92434.81;;;2.21;100.00
17873;BME280;36318;42.620;23.338;2023-04-05T06:08:17;92447.50;;;2.23;100.00
17873;BME280;36318;42.620;23.338;2023-04-05T06:10:43;92446.19;;;2.30;100.00
17873;BME280;36318;42.620;23.338;2023-04-05T06:13:10;92451.44;;;2.28;100.00
17873;BME280;36318;42.620;23.338;2023-04-05T06:15:36;92459.47;;;2.36;100.00
17873;BME280;36318;42.620;23.338;2023-04-05T06:18:03;92458.56;;;2.37;100.00
17873;BME280;36318;42.620;23.338;2023-04-05T06:20:30;92453.16;;;2.42;100.00
17873;BME280;36318;42.620;23.338;2023-04-05T06:22:57;92463.94;;;2.47;100.00
17873;BME280;36318;42.620;23.338;2023-04-05T06:25:24;92465.41;;;2.65;100.00
17873;BME280;36318;42.620;23.338;2023-04-05T06:27:50;92459.84;;;2.73;100.00
17873;BME280;36318;42.620;23.338;2023-04-05T06:30:17;92469.84;;;2.90;100.00
17873;BME280;36318;42.620;23.338;2023-04-05T06:32:44;92461.41;;;3.02;100.00
17873;BME280;36318;42.620;23.338;2023-04-05T06:35:12;92472.25;;;3.20;100.00
17873;BME280;36318;42.620;23.338;2023-04-05T06:37:39;92473.88;;;3.35;100.00
17873;BME280;36318;42.620;23.338;2023-04-05T06:40:08;92464.75;;;3.17;100.00
17873;BME280;36318;42.620;23.338;2023-04-05T06:42:34;92467.44;;;3.15;100.00
17873;BME280;36318;42.620;23.338;2023-04-05T06:45:01;92483.66;;;3.42;100.00
17873;BME280;36318;42.620;23.338;2023-04-05T06:47:28;92473.47;;;3.68;100.00
17873;BME280;36318;42.620;23.338;2023-04-05T06:49:55;92478.81;;;3.77;100.00
17873;BME280;36318;42.620;23.338;2023-04-05T06:52:21;92480.38;;;3.80;100.00
17873;BME280;36318;42.620;23.338;2023-04-05T06:54:48;92471.84;;;3.79;100.00
17873;BME280;36318;42.620;23.338;2023-04-05T06:57:16;92482.81;;;3.69;100.00
17873;BME280;36318;42.620;23.338;2023-04-05T06:59:42;92483.09;;;3.64;100.00
17873;BME280;36318;42.620;23.338;2023-04-05T07:02:09;92499.72;;;3.58;100.00
17873;BME280;36318;42.620;23.338;2023-04-05T07:04:35;92507.09;;;3.36;100.00
17873;BME280;36318;42.620;23.338;2023-04-05T07:07:02;92511.69;;;3.31;100.00
17873;BME280;36318;42.620;23.338;2023-04-05T07:09:29;92510.56;;;3.35;100.00
17873;BME280;36318;42.620;23.338;2023-04-05T07:11:57;92510.91;;;3.43;100.00
17873;BME280;36318;42.620;23.338;2023-04-05T07:14:25;92497.50;;;3.40;100.00
17873;BME280;36318;42.620;23.338;2023-04-05T07:16:51;92504.53;;;3.36;100.00
17873;BME280;36318;42.620;23.338;2023-04-05T07:19:18;92511.50;;;3.34;100.00
17873;BME280;36318;42.620;23.338;2023-04-05T07:21:44;92511.66;;;3.45;100.00
17873;BME280;36318;42.620;23.338;2023-04-05T07:24:11;92514.22;;;3.45;100.00
17873;BME280;36318;42.620;23.338;2023-04-05T07:26:37;92515.94;;;3.32;100.00
17873;BME280;36318;42.620;23.338;2023-04-05T07:29:04;92525.03;;;3.50;100.00
17873;BME280;36318;42.620;23.338;2023-04-05T07:31:32;92519.91;;;3.50;100.00
17873;BME280;36318;42.620;23.338;2023-04-05T07:33:59;92521.00;;;3.46;100.00
17873;BME280;36318;42.620;23.338;2023-04-05T07:36:26;92515.34;;;3.27;100.00
17873;BME280;36318;42.620;23.338;2023-04-05T07:38:54;92516.53;;;3.36;100.00
17873;BME280;36318;42.620;23.338;2023-04-05T07:41:21;92515.09;;;3.32;100.00
17873;BME280;36318;42.620;23.338;2023-04-05T07:43:48;92528.13;;;3.15;100.00
17873;BME280;36318;42.620;23.338;2023-04-05T07:46:15;92525.69;;;3.40;100.00
17873;BME280;36318;42.620;23.338;2023-04-05T07:48:45;92530.00;;;3.39;100.00
17873;BME280;36318;42.620;23.338;2023-04-05T07:51:11;92522.84;;;3.44;100.00
17873;BME280;36318;42.620;23.338;2023-04-05T07:53:38;92529.63;;;3.45;100.00
17873;BME280;36318;42.620;23.338;2023-04-05T07:56:05;92523.84;;;3.42;100.00
17873;BME280;36318;42.620;23.338;2023-04-05T07:58:32;92526.97;;;3.33;100.00
17873;BME280;36318;42.620;23.338;2023-04-05T08:00:59;92543.69;;;3.12;100.00
17873;BME280;36318;42.620;23.338;2023-04-05T08:03:26;92550.84;;;3.21;100.00
17873;BME280;36318;42.620;23.338;2023-04-05T08:05:54;92540.81;;;3.30;100.00
17873;BME280;36318;42.620;23.338;2023-04-05T08:08:22;92552.28;;;3.25;100.00
17873;BME280;36318;42.620;23.338;2023-04-05T08:10:49;92552.28;;;3.25;100.00
17873;BME280;36318;42.620;23.338;2023-04-05T08:13:16;92547.97;;;3.25;100.00
17873;BME280;36318;42.620;23.338;2023-04-05T08:15:42;92558.59;;;3.19;100.00
17873;BME280;36318;42.620;23.338;2023-04-05T08:18:09;92564.56;;;3.20;100.00
17873;BME280;36318;42.620;23.338;2023-04-05T08:20:36;92559.53;;;3.18;100.00
17873;BME280;36318;42.620;23.338;2023-04-05T08:23:06;92549.72;;;3.25;100.00
17873;BME280;36318;42.620;23.338;2023-04-05T08:25:33;92558.41;;;3.22;100.00
17873;BME280;36318;42.620;23.338;2023-04-05T08:28:00;92558.81;;;3.16;100.00
17873;BME280;36318;42.620;23.338;2023-04-05T08:30:26;92552.22;;;3.12;100.00
17873;BME280;36318;42.620;23.338;2023-04-05T08:32:53;92546.72;;;3.04;100.00
17873;BME280;36318;42.620;23.338;2023-04-05T08:35:19;92565.69;;;3.01;100.00
17873;BME280;36318;42.620;23.338;2023-04-05T08:37:46;92556.34;;;3.00;100.00
17873;BME280;36318;42.620;23.338;2023-04-05T08:40:14;92566.88;;;2.96;100.00
17873;BME280;36318;42.620;23.338;2023-04-05T08:42:43;92565.69;;;3.01;100.00
17873;BME280;36318;42.620;23.338;2023-04-05T08:45:12;92562.66;;;3.09;100.00
17873;BME280;36318;42.620;23.338;2023-04-05T08:47:40;92563.72;;;3.19;100.00
17873;BME280;36318;42.620;23.338;2023-04-05T08:50:08;92571.41;;;3.19;100.00
17873;BME280;36318;42.620;23.338;2023-04-05T08:52:35;92569.59;;;3.21;100.00
17873;BME280;36318;42.620;23.338;2023-04-05T08:55:04;92576.38;;;3.22;100.00
17873;BME280;36318;42.620;23.338;2023-04-05T08:57:32;92584.59;;;3.27;100.00
17873;BME280;36318;42.620;23.338;2023-04-05T09:00:02;92582.13;;;3.40;100.00
17873;BME280;36318;42.620;23.338;2023-04-05T09:02:29;92581.28;;;3.39;100.00
17873;BME280;36318;42.620;23.338;2023-04-05T09:04:56;92588.31;;;3.50;100.00
17873;BME280;36318;42.620;23.338;2023-04-05T09:07:23;92593.09;;;3.56;100.00
17873;BME280;36318;42.620;23.338;2023-04-05T09:09:52;92585.88;;;3.48;100.00
17873;BME280;36318;42.620;23.338;2023-04-05T09:12:20;92580.59;;;3.64;100.00
17873;BME280;36318;42.620;23.338;2023-04-05T09:14:48;92583.69;;;3.69;100.00
17873;BME280;36318;42.620;23.338;2023-04-05T09:17:16;92597.88;;;3.75;100.00
17873;BME280;36318;42.620;23.338;2023-04-05T09:19:42;92594.78;;;3.70;100.00
17873;BME280;36318;42.620;23.338;2023-04-05T09:22:09;92605.78;;;3.72;100.00
17873;BME280;36318;42.620;23.338;2023-04-05T09:24:36;92598.53;;;3.78;100.00
17873;BME280;36318;42.620;23.338;2023-04-05T09:27:06;92596.50;;;3.83;100.00
17873;BME280;36318;42.620;23.338;2023-04-05T09:29:33;92592.31;;;3.95;100.00
17873;BME280;36318;42.620;23.338;2023-04-05T09:32:01;92589.16;;;4.04;100.00
17873;BME280;36318;42.620;23.338;2023-04-05T09:34:29;92595.41;;;4.27;100.00
17873;BME280;36318;42.620;23.338;2023-04-05T09:36:56;92592.72;;;4.28;100.00
17873;BME280;36318;42.620;23.338;2023-04-05T09:39:26;92594.66;;;4.51;100.00
17873;BME280;36318;42.620;23.338;2023-04-05T09:42:02;92596.19;;;4.66;100.00
17873;BME280;36318;42.620;23.338;2023-04-05T09:44:36;92608.72;;;4.71;100.00
17873;BME280;36318;42.620;23.338;2023-04-05T09:47:18;92598.31;;;4.47;100.00
17873;BME280;36318;42.620;23.338;2023-04-05T09:49:44;92595.03;;;4.58;100.00
17873;BME280;36318;42.620;23.338;2023-04-05T09:52:18;92593.09;;;4.74;100.00
17873;BME280;36318;42.620;23.338;2023-04-05T09:54:45;92596.00;;;4.82;100.00
17873;BME280;36318;42.620;23.338;2023-04-05T09:57:12;92604.13;;;4.89;100.00
17873;BME280;36318;42.620;23.338;2023-04-05T09:59:38;92606.75;;;4.49;100.00
17873;BME280;36318;42.620;23.338;2023-04-05T10:02:05;92607.56;;;4.37;100.00
17873;BME280;36318;42.620;23.338;2023-04-05T10:04:38;92602.03;;;4.56;100.00
17873;BME280;36318;42.620;23.338;2023-04-05T10:07:06;92592.06;;;4.51;100.00
17873;BME280;36318;42.620;23.338;2023-04-05T10:09:34;92588.75;;;4.37;100.00
17873;BME280;36318;42.620;23.338;2023-04-05T10:12:01;92594.53;;;4.40;100.00
17873;BME280;36318;42.620;23.338;2023-04-05T10:14:27;92607.38;;;4.53;100.00
17873;BME280;36318;42.620;23.338;2023-04-05T10:16:57;92607.38;;;4.40;100.00
17873;BME280;36318;42.620;23.338;2023-04-05T10:19:25;92617.63;;;4.40;100.00
17873;BME280;36318;42.620;23.338;2023-04-05T10:21:54;92605.41;;;4.44;100.00
17873;BME280;36318;42.620;23.338;2023-04-05T10:24:29;92603.94;;;4.27;100.00
17873;BME280;36318;42.620;23.338;2023-04-05T10:27:02;92616.84;;;4.13;100.00
17873;BME280;36318;42.620;23.338;2023-04-05T10:29:32;92607.75;;;4.34;100.00
17873;BME280;36318;42.620;23.338;2023-04-05T10:32:03;92608.88;;;4.03;100.00
17873;BME280;36318;42.620;23.338;2023-04-05T10:34:35;92605.63;;;4.14;100.00
17873;BME280;36318;42.620;23.338;2023-04-05T10:37:07;92605.44;;;4.17;100.00
17873;BME280;36318;42.620;23.338;2023-04-05T10:39:39;92614.50;;;4.22;100.00
17873;BME280;36318;42.620;23.338;2023-04-05T10:42:06;92609.59;;;3.79;100.00
17873;BME280;36318;42.620;23.338;2023-04-05T10:44:35;92618.81;;;3.95;100.00
17873;BME280;36318;42.620;23.338;2023-04-05T10:47:02;92609.31;;;4.10;100.00
17873;BME280;36318;42.620;23.338;2023-04-05T10:49:32;92624.59;;;4.38;100.00
17873;BME280;36318;42.620;23.338;2023-04-05T10:52:01;92622.13;;;4.24;100.00
17873;BME280;36318;42.620;23.338;2023-04-05T10:54:29;92628.94;;;4.11;100.00
17873;BME280;36318;42.620;23.338;2023-04-05T10:56:57;92617.31;;;4.32;100.00
17873;BME280;36318;42.620;23.338;2023-04-05T10:59:25;92621.38;;;4.22;100.00
17873;BME280;36318;42.620;23.338;2023-04-05T11:01:53;92616.09;;;4.38;100.00
17873;BME280;36318;42.620;23.338;2023-04-05T11:04:20;92615.41;;;4.48;100.00
17873;BME280;36318;42.620;23.338;2023-04-05T11:06:46;92620.88;;;4.69;100.00
17873;BME280;36318;42.620;23.338;2023-04-05T11:09:13;92627.66;;;4.82;100.00
17873;BME280;36318;42.620;23.338;2023-04-05T11:11:43;92622.22;;;4.62;100.00
17873;BME280;36318;42.620;23.338;2023-04-05T11:14:16;92619.03;;;5.09;100.00
17873;BME280;36318;42.620;23.338;2023-04-05T11:16:45;92626.56;;;5.12;100.00
17873;BME280;36318;42.620;23.338;2023-04-05T11:19:11;92621.53;;;5.10;100.00
17873;BME280;36318;42.620;23.338;2023-04-05T11:21:38;92632.00;;;5.07;100.00
17873;BME280;36318;42.620;23.338;2023-04-05T11:24:05;92624.06;;;5.23;100.00
17873;BME280;36318;42.620;23.338;2023-04-05T11:26:32;92629.31;;;5.47;100.00
17873;BME280;36318;42.620;23.338;2023-04-05T11:29:01;92622.03;;;5.40;100.00
17873;BME280;36318;42.620;23.338;2023-04-05T11:31:27;92541.66;;;5.12;100.00
17873;BME280;36318;42.620;23.338;2023-04-05T11:33:55;92623.63;;;5.67;100.00
17873;BME280;36318;42.620;23.338;2023-04-05T11:36:30;92626.66;;;5.84;100.00
17873;BME280;36318;42.620;23.338;2023-04-05T11:41:43;92624.44;;;5.67;100.00
17873;BME280;36318;42.620;23.338;2023-04-05T11:44:12;92629.41;;;5.45;100.00
17873;BME280;36318;42.620;23.338;2023-04-05T11:46:39;92619.13;;;5.20;100.00
17873;BME280;36318;42.620;23.338;2023-04-05T11:49:06;92626.13;;;5.43;100.00
17873;BME280;36318;42.620;23.338;2023-04-05T11:51:33;92624.78;;;5.25;100.00
17873;BME280;36318;42.620;23.338;2023-04-05T11:54:00;92618.22;;;5.21;100.00
17873;BME280;36318;42.620;23.338;2023-04-05T11:56:26;92624.47;;;5.17;100.00
17873;BME280;36318;42.620;23.338;2023-04-05T11:58:56;92633.66;;;5.21;100.00
17873;BME280;36318;42.620;23.338;2023-04-05T12:01:24;92627.97;;;5.41;100.00
17873;BME280;36318;42.620;23.338;2023-04-05T12:03:52;92630.34;;;5.44;100.00
17873;BME280;36318;42.620;23.338;2023-04-05T12:06:20;92630.19;;;5.71;100.00
17873;BME280;36318;42.620;23.338;2023-04-05T12:08:47;92619.22;;;5.92;100.00
17873;BME280;36318;42.620;23.338;2023-04-05T12:11:15;92614.38;;;6.00;100.00
17873;BME280;36318;42.620;23.338;2023-04-05T12:13:42;92612.47;;;6.15;100.00
17873;BME280;36318;42.620;23.338;2023-04-05T12:16:10;92618.47;;;6.03;100.00
17873;BME280;36318;42.620;23.338;2023-04-05T12:18:38;92628.09;;;5.76;100.00
17873;BME280;36318;42.620;23.338;2023-04-05T12:21:05;92626.44;;;5.51;100.00
17873;BME280;36318;42.620;23.338;2023-04-05T12:23:32;92627.53;;;5.60;100.00
17873;BME280;36318;42.620;23.338;2023-04-05T12:25:58;92626.94;;;5.56;100.00
17873;BME280;36318;42.620;23.338;2023-04-05T12:28:25;92628.56;;;5.57;100.00
17873;BME280;36318;42.620;23.338;2023-04-05T12:31:12;92629.38;;;5.70;100.00
17873;BME280;36318;42.620;23.338;2023-04-05T12:33:40;92623.19;;;5.85;100.00
17873;BME280;36318;42.620;23.338;2023-04-05T12:36:06;92619.03;;;6.19;100.00
17873;BME280;36318;42.620;23.338;2023-04-05T12:38:35;92618.28;;;6.53;100.00
17873;BME280;36318;42.620;23.338;2023-04-05T12:41:02;92611.34;;;6.89;95.75
17873;BME280;36318;42.620;23.338;2023-04-05T12:43:36;92618.34;;;6.87;95.13
17873;BME280;36318;42.620;23.338;2023-04-05T12:46:05;92621.50;;;6.79;97.24
17873;BME280;36318;42.620;23.338;2023-04-05T12:48:31;92619.72;;;7.14;100.00
17873;BME280;36318;42.620;23.338;2023-04-05T12:50:59;92612.69;;;7.50;99.40
17873;BME280;36318;42.620;23.338;2023-04-05T12:53:29;92617.06;;;7.27;84.52
17873;BME280;36318;42.620;23.338;2023-04-05T12:55:57;92618.28;;;6.99;87.54